Time;durP1;ratioP1;P1;durP2;ratioP2;P2;SDS_P1;SDS_P2;PMS_P1;PMS_P2;Temp;Humidity;BMP_temperature;BMP_pressure;BME280_temperature;BME280_humidity;BME280_pressure;Samples;Min_cycle;Max_cycle;Signal;HPM_P1;HPM_P2
2023/09/28 00:00:38;;;;;;;12.52;3.90;;;;;;;17.87;100.00;101331.84;5253503;28;20240;-70
2023/09/28 00:03:09;;;;;;;10.02;5.03;;;;;;;17.80;100.00;101331.84;5251222;28;20081;-70
2023/09/28 00:05:40;;;;;;;7.53;3.50;;;;;;;17.79;100.00;101334.75;5251493;28;20066;-71
2023/09/28 00:08:10;;;;;;;7.32;3.70;;;;;;;17.75;100.00;101328.06;5251910;28;20024;-70
2023/09/28 00:10:42;;;;;;;4.35;3.20;;;;;;;17.69;100.00;101331.56;5253613;28;20082;-70
2023/09/28 00:13:13;;;;;;;5.50;3.35;;;;;;;17.56;100.00;101329.59;5251855;28;20029;-70
2023/09/28 00:15:43;;;;;;;8.15;2.97;;;;;;;17.44;100.00;101337.47;5252093;28;20036;-70
2023/09/28 00:18:14;;;;;;;5.93;3.85;;;;;;;17.35;100.00;101339.50;5251844;28;20024;-70
2023/09/28 00:20:44;;;;;;;13.85;3.83;;;;;;;17.35;100.00;101339.50;5255117;28;20016;-70
2023/09/28 00:23:17;;;;;;;5.18;3.50;;;;;;;17.25;100.00;101343.59;5250496;28;20020;-70
2023/09/28 00:25:47;;;;;;;8.68;3.60;;;;;;;17.05;100.00;101338.03;5254098;28;20031;-70
2023/09/28 00:28:18;;;;;;;6.88;3.92;;;;;;;17.01;100.00;101337.56;5249564;28;20024;-70
2023/09/28 00:30:48;;;;;;;5.75;3.70;;;;;;;16.96;100.00;101344.63;5251832;28;20031;-70
2023/09/28 00:33:19;;;;;;;5.97;3.40;;;;;;;16.94;100.00;101346.69;5253119;28;20432;-71
2023/09/28 00:35:49;;;;;;;8.05;4.05;;;;;;;16.92;100.00;101338.78;5252085;28;20085;-70
2023/09/28 00:38:20;;;;;;;8.00;4.00;;;;;;;16.81;100.00;101342.00;5251613;28;20475;-71
2023/09/28 00:40:50;;;;;;;5.78;3.38;;;;;;;16.77;100.00;101357.81;5249804;28;20081;-71
2023/09/28 00:43:30;;;;;;;5.13;3.13;;;;;;;16.70;100.00;101353.34;5247166;28;20016;-71
2023/09/28 00:46:01;;;;;;;5.88;3.45;;;;;;;16.72;100.00;101354.03;5246746;28;20032;-70
2023/09/28 00:48:38;;;;;;;6.20;3.50;;;;;;;16.69;100.00;101357.06;5251313;28;20081;-71
2023/09/28 00:51:09;;;;;;;5.88;3.17;;;;;;;16.65;100.00;101359.31;5248683;28;20083;-70
2023/09/28 00:53:39;;;;;;;6.80;3.20;;;;;;;16.62;100.00;101358.88;5244358;28;20044;-70
2023/09/28 00:56:10;;;;;;;6.72;3.42;;;;;;;16.60;100.00;101358.22;5250159;28;20020;-69
2023/09/28 00:58:40;;;;;;;10.93;3.45;;;;;;;16.57;100.00;101365.72;5251756;28;20038;-69
2023/09/28 01:01:11;;;;;;;6.95;3.60;;;;;;;16.59;100.00;101362.81;5248590;28;20016;-69
2023/09/28 01:03:42;;;;;;;10.23;3.60;;;;;;;16.54;100.00;101363.41;5250905;28;20086;-71
2023/09/28 01:06:13;;;;;;;12.20;4.78;;;;;;;16.52;100.00;101364.63;5249335;28;20028;-70
2023/09/28 01:08:43;;;;;;;7.60;3.80;;;;;;;16.50;100.00;101366.69;5250186;28;20038;-71
2023/09/28 01:11:13;;;;;;;8.68;3.78;;;;;;;16.44;100.00;101379.13;5248902;28;20027;-70
2023/09/28 01:13:44;;;;;;;8.35;3.53;;;;;;;16.43;100.00;101379.31;5253079;28;20036;-70
2023/09/28 01:16:15;;;;;;;10.35;3.65;;;;;;;16.37;100.00;101378.22;5252382;28;20029;-70
2023/09/28 01:18:46;;;;;;;7.78;3.53;;;;;;;16.31;100.00;101373.53;5251620;28;20032;-70
2023/09/28 01:21:21;;;;;;;7.03;3.50;;;;;;;16.23;100.00;101382.63;5249125;28;20486;-70
2023/09/28 01:23:51;;;;;;;10.27;3.55;;;;;;;16.13;100.00;101376.69;5249607;28;20034;-70
2023/09/28 01:26:22;;;;;;;11.32;4.22;;;;;;;16.08;100.00;101376.41;5253594;28;20106;-70
2023/09/28 01:29:05;;;;;;;9.30;4.18;;;;;;;16.11;100.00;101388.72;5250245;28;20035;-70
2023/09/28 01:31:56;;;;;;;10.65;4.78;;;;;;;16.22;100.00;101385.53;5250487;28;20045;-69
2023/09/28 01:34:26;;;;;;;9.63;4.13;;;;;;;16.29;100.00;101381.88;5253811;28;20397;-70
2023/09/28 01:36:57;;;;;;;6.82;3.83;;;;;;;16.31;100.00;101384.38;5231358;28;20031;-70
2023/09/28 01:39:28;;;;;;;12.38;4.70;;;;;;;16.33;100.00;101386.91;5252881;28;20020;-70
2023/09/28 01:41:58;;;;;;;8.10;4.75;;;;;;;16.34;100.00;101389.41;5251750;28;20416;-70
2023/09/28 01:44:28;;;;;;;6.78;4.20;;;;;;;16.25;100.00;101394.09;5247794;28;20063;-70
2023/09/28 01:46:59;;;;;;;11.32;4.05;;;;;;;16.20;100.00;101401.97;5258974;28;20024;-70
2023/09/28 01:49:29;;;;;;;10.73;4.32;;;;;;;16.19;100.00;101404.88;5251745;28;20030;-70
2023/09/28 01:52:01;;;;;;;9.43;4.35;;;;;;;16.14;100.00;101397.31;5251131;28;20028;-71
2023/09/28 01:54:31;;;;;;;10.80;4.30;;;;;;;16.08;100.00;101400.78;5251982;28;20034;-71
2023/09/28 01:57:02;;;;;;;10.35;4.28;;;;;;;16.03;100.00;101409.47;5253740;28;20054;-71
2023/09/28 01:59:32;;;;;;;9.73;4.70;;;;;;;16.00;100.00;101409.81;5248928;28;20076;-71
2023/09/28 02:02:04;;;;;;;8.63;4.10;;;;;;;15.94;100.00;101420.56;5250379;28;20016;-70
2023/09/28 02:04:41;;;;;;;8.68;4.38;;;;;;;15.89;100.00;101425.72;5252537;28;20085;-71
2023/09/28 02:07:12;;;;;;;10.30;4.75;;;;;;;15.84;100.00;101430.84;5251053;28;20024;-70
2023/09/28 02:09:44;;;;;;;9.77;4.10;;;;;;;15.79;100.00;101431.41;5260056;28;20016;-69
2023/09/28 02:12:14;;;;;;;6.18;3.72;;;;;;;15.79;100.00;101429.53;5252999;28;20123;-69
2023/09/28 02:14:55;;;;;;;10.82;4.80;;;;;;;15.76;100.00;101434.47;5257653;28;20717;-69
2023/09/28 02:17:27;;;;;;;11.57;4.40;;;;;;;15.74;100.00;101434.66;5263143;28;20374;-69
2023/09/28 02:19:58;;;;;;;8.57;4.38;;;;;;;15.68;100.00;101438.09;5252389;28;20027;-70
2023/09/28 02:22:29;;;;;;;6.72;3.92;;;;;;;15.66;100.00;101429.34;5255155;28;21504;-70
2023/09/28 02:24:59;;;;;;;6.70;4.18;;;;;;;15.66;100.00;101432.06;5254243;28;20029;-70
2023/09/28 02:27:30;;;;;;;7.85;3.92;;;;;;;15.63;100.00;101439.66;5249055;28;20624;-69
2023/09/28 02:30:01;;;;;;;7.68;4.63;;;;;;;15.60;100.00;101440.84;5257999;28;20020;-70
2023/09/28 02:32:33;;;;;;;7.07;3.85;;;;;;;15.54;100.00;101431.63;5257074;28;20028;-70
2023/09/28 02:35:05;;;;;;;8.57;3.83;;;;;;;15.48;100.00;101435.06;5258468;28;20396;-71
2023/09/28 02:37:37;;;;;;;8.10;4.25;;;;;;;15.45;100.00;101440.00;5255799;28;20071;-70
2023/09/28 02:40:09;;;;;;;8.68;4.55;;;;;;;15.45;100.00;101442.69;5253202;28;21127;-71
2023/09/28 02:42:41;;;;;;;12.13;4.63;;;;;;;15.42;100.00;101438.50;5248043;28;20028;-70
2023/09/28 02:45:12;;;;;;;7.03;4.15;;;;;;;15.43;100.00;101437.47;5257261;28;20012;-72
2023/09/28 02:47:44;;;;;;;6.50;4.07;;;;;;;15.45;100.00;101443.53;5257841;28;20358;-72
2023/09/28 02:50:16;;;;;;;9.95;4.80;;;;;;;15.46;100.00;101453.34;5255451;28;20012;-72
2023/09/28 02:52:47;;;;;;;15.63;4.82;;;;;;;15.49;100.00;101444.00;5253260;28;20032;-72
2023/09/28 02:55:18;;;;;;;11.40;5.38;;;;;;;15.49;100.00;101447.56;5260234;28;20027;-72
2023/09/28 02:57:49;;;;;;;8.75;5.05;;;;;;;15.51;100.00;101453.63;5255507;28;20153;-73
2023/09/28 03:02:56;;;;;;;7.93;5.00;;;;;;;15.54;100.00;101468.63;5254562;28;20031;-72
2023/09/28 03:05:28;;;;;;;9.10;5.18;;;;;;;15.54;100.00;101468.63;5254455;28;20025;-72
2023/09/28 03:07:58;;;;;;;12.07;5.28;;;;;;;15.58;100.00;101475.38;5258101;28;20020;-72
2023/09/28 03:10:30;;;;;;;12.68;6.25;;;;;;;15.61;100.00;101491.22;5260322;28;20028;-69
2023/09/28 03:13:00;;;;;;;12.90;6.03;;;;;;;15.71;100.00;101483.72;5257755;28;20032;-69
2023/09/28 03:15:32;;;;;;;17.80;7.32;;;;;;;15.88;100.00;101481.69;5253134;28;20028;-69
2023/09/28 03:18:03;;;;;;;16.20;7.75;;;;;;;16.12;100.00;101490.56;5256416;28;20058;-70
2023/09/28 03:20:34;;;;;;;13.23;7.40;;;;;;;16.32;100.00;101494.38;5258644;28;20048;-70
2023/09/28 03:23:06;;;;;;;15.48;8.13;;;;;;;16.51;100.00;101501.91;5250793;28;20108;-70
2023/09/28 03:25:37;;;;;;;12.30;7.43;;;;;;;16.69;100.00;101501.50;5256412;28;20062;-70
2023/09/28 03:28:07;;;;;;;13.75;7.38;;;;;;;16.83;100.00;101500.66;5252680;28;20472;-70
2023/09/28 03:30:39;;;;;;;14.40;6.47;;;;;;;16.96;100.00;101499.09;5252962;28;20020;-70
2023/09/28 03:33:10;;;;;;;12.77;6.70;;;;;;;17.00;100.00;101493.13;5260379;28;20040;-70
2023/09/28 03:35:40;;;;;;;13.95;6.68;;;;;;;17.02;100.00;101491.06;5256817;28;20024;-70
2023/09/28 03:38:11;;;;;;;15.07;6.93;;;;;;;17.03;100.00;101495.44;5254852;28;20020;-70
2023/09/28 03:40:43;;;;;;;12.23;6.60;;;;;;;17.00;100.00;101498.53;5258425;28;20130;-70
2023/09/28 03:43:13;;;;;;;11.77;5.97;;;;;;;16.95;100.00;101490.13;5250833;28;20032;-70
2023/09/28 03:45:44;;;;;;;16.80;6.72;;;;;;;16.87;100.00;101490.28;5254627;28;20028;-70
2023/09/28 03:48:14;;;;;;;17.25;7.00;;;;;;;16.75;100.00;101492.63;5252159;28;20024;-70
2023/09/28 03:50:45;;;;;;;13.98;6.35;;;;;;;16.72;100.00;101500.31;5257045;28;20077;-71
2023/09/28 03:53:16;;;;;;;13.57;6.57;;;;;;;16.70;100.00;101488.78;5248932;28;20032;-71
2023/09/28 03:55:47;;;;;;;13.32;6.78;;;;;;;16.62;100.00;101489.75;5254883;28;20126;-70
2023/09/28 03:58:18;;;;;;;14.63;6.32;;;;;;;16.53;100.00;101493.59;5255752;28;20016;-71
2023/09/28 04:00:48;;;;;;;11.98;6.20;;;;;;;16.41;100.00;101508.63;5255584;28;20078;-71
2023/09/28 04:03:19;;;;;;;10.88;6.60;;;;;;;16.32;100.00;101510.63;5252646;28;20017;-71
2023/09/28 04:05:49;;;;;;;14.68;6.82;;;;;;;16.26;100.00;101520.31;5251355;28;20035;-70
2023/09/28 04:08:20;;;;;;;17.17;7.68;;;;;;;16.29;100.00;101527.22;5256258;28;20584;-70
2023/09/28 04:10:50;;;;;;;23.13;8.77;;;;;;;16.38;100.00;101526.13;5254874;28;20035;-71
2023/09/28 04:13:21;;;;;;;15.70;8.32;;;;;;;16.46;100.00;101533.28;5258865;28;20020;-71
2023/09/28 04:15:51;;;;;;;13.55;7.32;;;;;;;16.53;100.00;101535.06;5254641;28;20039;-71
2023/09/28 04:18:22;;;;;;;18.90;8.02;;;;;;;16.59;100.00;101536.16;5255157;28;20078;-71
2023/09/28 04:20:52;;;;;;;21.35;8.20;;;;;;;16.58;100.00;101540.75;5252150;28;20035;-71
2023/09/28 04:23:23;;;;;;;14.07;7.78;;;;;;;16.56;100.00;101539.25;5250464;28;20090;-71
2023/09/28 04:25:54;;;;;;;15.52;8.00;;;;;;;16.60;100.00;101545.97;5257584;28;20030;-71
2023/09/28 04:28:25;;;;;;;19.60;8.13;;;;;;;16.64;100.00;101547.28;5254684;28;20024;-70
2023/09/28 04:30:55;;;;;;;17.08;7.45;;;;;;;16.59;100.00;101544.31;5257995;28;20389;-70
2023/09/28 04:33:26;;;;;;;19.52;8.20;;;;;;;16.58;100.00;101538.03;5252687;28;20024;-70
2023/09/28 04:35:56;;;;;;;15.32;8.13;;;;;;;16.50;100.00;101526.47;5253906;28;20337;-69
2023/09/28 04:38:27;;;;;;;16.77;7.75;;;;;;;16.44;100.00;101538.91;5259968;28;20084;-70
2023/09/28 04:41:00;;;;;;;13.95;7.50;;;;;;;16.41;100.00;101549.25;5251589;28;20020;-70
2023/09/28 04:43:31;;;;;;;13.80;7.25;;;;;;;16.42;100.00;101557.22;5251151;28;20028;-70
2023/09/28 04:46:05;;;;;;;14.73;7.35;;;;;;;16.49;100.00;101565.41;5259013;28;20024;-71
2023/09/28 04:48:35;;;;;;;22.47;8.87;;;;;;;16.49;100.00;101563.53;5254427;28;20034;-70
2023/09/28 04:51:06;;;;;;;18.88;7.45;;;;;;;16.57;100.00;101563.47;5253371;28;20028;-71
2023/09/28 04:53:36;;;;;;;15.20;7.93;;;;;;;16.50;100.00;101559.81;5256175;28;20032;-70
2023/09/28 04:56:10;;;;;;;12.82;6.57;;;;;;;16.41;100.00;101569.06;5252324;28;20478;-70
2023/09/28 04:58:41;;;;;;;19.80;7.75;;;;;;;16.39;100.00;101573.81;5248095;28;20404;-70
2023/09/28 05:01:12;;;;;;;22.42;7.95;;;;;;;16.39;100.00;101586.53;5231219;28;20021;-70
2023/09/28 05:03:42;;;;;;;14.00;6.53;;;;;;;16.47;100.00;101597.28;5254280;28;20579;-70
2023/09/28 05:06:13;;;;;;;17.13;6.90;;;;;;;16.50;100.00;101594.19;5247241;28;20048;-71
2023/09/28 05:08:43;;;;;;;19.98;6.20;;;;;;;16.51;100.00;101590.44;5256552;28;20096;-70
2023/09/28 05:11:14;;;;;;;17.45;6.70;;;;;;;16.52;100.00;101589.44;5252112;28;20429;-70
2023/09/28 05:13:44;;;;;;;15.00;5.55;;;;;;;16.47;100.00;101584.56;5250794;28;20044;-71
2023/09/28 05:16:14;;;;;;;14.50;5.40;;;;;;;16.38;100.00;101582.97;5248952;28;20033;-70
2023/09/28 05:18:46;;;;;;;14.85;5.97;;;;;;;16.28;100.00;101575.13;5248615;28;20036;-70
2023/09/28 05:21:17;;;;;;;10.65;5.45;;;;;;;16.18;100.00;101584.56;5258063;28;20065;-70
2023/09/28 05:23:48;;;;;;;17.08;6.50;;;;;;;16.04;100.00;101597.03;5249728;28;20031;-70
2023/09/28 05:26:18;;;;;;;23.05;6.90;;;;;;;15.91;100.00;101604.94;5249648;28;20020;-70
2023/09/28 05:28:49;;;;;;;18.67;6.20;;;;;;;15.79;100.00;101599.97;5248487;28;20082;-71
2023/09/28 05:31:19;;;;;;;16.63;5.93;;;;;;;15.69;100.00;101602.06;5245211;28;20021;-71
2023/09/28 05:33:50;;;;;;;17.85;6.00;;;;;;;15.65;100.00;101602.63;5253759;28;20035;-71
2023/09/28 05:36:22;;;;;;;14.70;5.82;;;;;;;15.60;100.00;101611.25;5237623;28;20039;-71
2023/09/28 05:38:52;;;;;;;16.73;5.85;;;;;;;15.52;100.00;101616.72;5237026;28;20460;-71
2023/09/28 05:41:23;;;;;;;16.88;6.88;;;;;;;15.49;100.00;101611.66;5249277;28;20052;-71
2023/09/28 05:43:53;;;;;;;22.13;6.07;;;;;;;15.49;100.00;101607.09;5248425;28;20149;-71
2023/09/28 05:46:25;;;;;;;11.10;5.97;;;;;;;15.45;100.00;101607.63;5248700;28;20478;-71
2023/09/28 05:48:55;;;;;;;18.90;7.05;;;;;;;15.40;100.00;101610.88;5252535;28;20048;-70
2023/09/28 05:51:27;;;;;;;15.45;5.53;;;;;;;15.34;100.00;101622.41;5253959;28;20470;-70
2023/09/28 05:53:58;;;;;;;18.23;6.43;;;;;;;15.29;100.00;101616.69;5254122;28;20036;-70
2023/09/28 05:56:28;;;;;;;21.13;5.60;;;;;;;15.30;100.00;101626.47;5259990;28;20113;-70
2023/09/28 05:58:59;;;;;;;22.17;6.47;;;;;;;15.33;100.00;101633.41;5255301;28;20028;-71
2023/09/28 06:01:30;;;;;;;16.20;5.90;;;;;;;15.35;100.00;101639.47;5255070;28;20035;-71
2023/09/28 06:04:00;;;;;;;26.67;6.57;;;;;;;15.38;100.00;101641.84;5251413;28;20082;-70
2023/09/28 06:06:31;;;;;;;14.95;5.25;;;;;;;15.39;100.00;101646.22;5254021;28;20427;-70
2023/09/28 06:09:02;;;;;;;25.55;6.20;;;;;;;15.48;100.00;101651.38;5255793;28;20039;-71
2023/09/28 06:11:32;;;;;;;32.33;5.65;;;;;;;15.61;100.00;101663.47;5260207;28;20609;-71
2023/09/28 06:14:03;;;;;;;17.77;5.20;;;;;;;15.66;100.00;101667.38;5254646;28;20017;-71
2023/09/28 06:16:36;;;;;;;17.20;5.07;;;;;;;15.77;100.00;101660.69;5253986;28;20036;-71
2023/09/28 06:19:07;;;;;;;14.10;4.82;;;;;;;15.80;100.00;101660.31;5248555;28;20025;-71
2023/09/28 06:21:38;;;;;;;25.92;5.57;;;;;;;15.85;100.00;101666.03;5258407;28;20038;-71
2023/09/28 06:24:09;;;;;;;22.33;4.50;;;;;;;15.89;100.00;101669.22;5254826;28;20439;-71
2023/09/28 06:26:40;;;;;;;23.92;5.05;;;;;;;15.95;100.00;101663.91;5255135;28;20119;-71
2023/09/28 06:29:11;;;;;;;24.70;5.47;;;;;;;16.08;100.00;101679.56;5253241;28;20397;-71
2023/09/28 06:31:41;;;;;;;26.45;4.82;;;;;;;16.15;100.00;101694.03;5249572;28;20040;-71
2023/09/28 06:34:12;;;;;;;12.02;4.65;;;;;;;16.28;100.00;101702.38;5256037;28;20371;-71
2023/09/28 06:36:42;;;;;;;36.75;5.00;;;;;;;16.35;100.00;101698.94;5256811;28;20081;-71
2023/09/28 06:39:12;;;;;;;18.63;3.95;;;;;;;16.52;100.00;101709.44;5251926;28;20017;-71
2023/09/28 06:41:44;;;;;;;19.85;4.60;;;;;;;16.73;100.00;101716.03;5255153;28;20485;-71
2023/09/28 06:44:14;;;;;;;23.27;4.28;;;;;;;16.78;100.00;101708.19;5253450;28;20028;-71
2023/09/28 06:46:46;;;;;;;27.92;4.10;;;;;;;16.96;100.00;101705.09;5254538;28;20021;-71
2023/09/28 06:49:16;;;;;;;20.83;4.45;;;;;;;17.07;100.00;101693.81;5250655;28;20103;-72
2023/09/28 06:51:48;;;;;;;27.67;4.43;;;;;;;17.18;100.00;101689.75;5252378;28;20478;-71
2023/09/28 06:54:20;;;;;;;24.95;4.70;;;;;;;17.29;100.00;101695.53;5252903;28;20073;-71
2023/09/28 06:56:51;;;;;;;19.38;4.45;;;;;;;17.48;100.00;101707.66;5256671;28;20039;-71
2023/09/28 06:59:22;;;;;;;27.50;4.80;;;;;;;17.61;100.00;101688.78;5252390;28;20020;-71
2023/09/28 07:01:54;;;;;;;28.98;3.80;;;;;;;17.85;100.00;101684.06;5255608;28;20032;-71
2023/09/28 07:04:25;;;;;;;21.48;4.00;;;;;;;18.11;100.00;101694.34;5257516;28;20107;-72
2023/09/28 07:06:55;;;;;;;33.35;4.57;;;;;;;18.35;100.00;101693.91;5252571;28;20024;-71
2023/09/28 07:09:26;;;;;;;17.27;3.88;;;;;;;18.68;100.00;101693.34;5255979;28;20027;-72
2023/09/28 07:11:56;;;;;;;28.55;4.53;;;;;;;18.90;100.00;101699.53;5253590;28;20117;-71
2023/09/28 07:14:27;;;;;;;20.40;4.60;;;;;;;19.38;100.00;101696.84;5248912;28;20046;-72
2023/09/28 07:16:58;;;;;;;22.20;4.43;;;;;;;19.58;100.00;101705.09;5252190;28;20029;-71
2023/09/28 07:19:29;;;;;;;25.50;4.88;;;;;;;19.84;100.00;101713.34;5252087;28;20035;-72
2023/09/28 07:22:01;;;;;;;29.13;5.13;;;;;;;20.29;100.00;101718.22;5253266;28;20393;-72
2023/09/28 07:24:33;;;;;;;33.22;5.20;;;;;;;20.20;100.00;101723.00;5255607;28;20085;-72
2023/09/28 07:27:04;;;;;;;31.70;4.63;;;;;;;20.64;100.00;101725.13;5251235;28;20020;-71
2023/09/28 07:29:34;;;;;;;21.17;4.60;;;;;;;20.69;100.00;101725.34;5257427;28;20028;-72
2023/09/28 07:32:06;;;;;;;22.15;3.85;;;;;;;20.73;100.00;101730.34;5243436;28;20533;-72
2023/09/28 07:34:37;;;;;;;23.08;4.35;;;;;;;20.79;100.00;101727.63;5257428;28;20187;-71
2023/09/28 07:37:07;;;;;;;25.88;4.13;;;;;;;20.60;100.00;101739.41;5247880;28;20028;-72
2023/09/28 07:39:38;;;;;;;33.80;4.90;;;;;;;20.27;100.00;101745.63;5254020;28;20489;-71
2023/09/28 07:42:08;;;;;;;18.08;4.00;;;;;;;20.22;100.00;101744.59;5254521;28;20116;-72
2023/09/28 07:44:40;;;;;;;33.25;5.38;;;;;;;20.25;100.00;101736.84;5253226;28;20749;-71
2023/09/28 07:47:10;;;;;;;23.67;4.35;;;;;;;20.37;100.00;101737.88;5255177;28;20024;-72
2023/09/28 07:49:41;;;;;;;27.48;4.82;;;;;;;20.58;100.00;101736.03;5252479;28;20381;-71
2023/09/28 07:52:12;;;;;;;28.40;4.57;;;;;;;20.97;100.00;101742.47;5250345;28;20051;-72
2023/09/28 07:54:43;;;;;;;27.13;4.82;;;;;;;21.37;100.00;101754.16;5253720;28;20487;-71
2023/09/28 07:57:14;;;;;;;34.80;5.25;;;;;;;21.43;100.00;101743.19;5253406;28;20028;-71
2023/09/28 07:59:44;;;;;;;23.73;3.90;;;;;;;21.78;100.00;101739.25;5249172;28;20374;-71
2023/09/28 08:02:15;;;;;;;28.05;4.53;;;;;;;21.73;100.00;101731.69;5244354;28;20036;-71
2023/09/28 08:04:46;;;;;;;18.83;4.45;;;;;;;21.82;100.00;101727.66;5252931;28;20016;-71
2023/09/28 08:07:17;;;;;;;27.83;4.63;;;;;;;21.79;100.00;101730.00;5250238;28;20028;-71
2023/09/28 08:09:48;;;;;;;29.83;4.80;;;;;;;21.58;100.00;101732.00;5251363;28;20063;-71
2023/09/28 08:12:18;;;;;;;28.30;5.57;;;;;;;21.35;100.00;101718.88;5253566;28;20036;-72
2023/09/28 08:14:49;;;;;;;24.58;3.70;;;;;;;21.53;100.00;101730.97;5253158;28;20035;-71
2023/09/28 08:17:20;;;;;;;22.95;3.97;;;;;;;21.59;100.00;101735.59;5252199;28;20032;-71
2023/09/28 08:19:51;;;;;;;21.80;4.18;;;;;;;21.44;100.00;101747.63;5247041;28;20393;-71
2023/09/28 08:22:22;;;;;;;23.75;4.90;;;;;;;21.53;100.00;101748.19;5252614;28;20077;-72
2023/09/28 08:24:53;;;;;;;23.83;4.00;;;;;;;21.60;100.00;101749.00;5256322;28;20031;-72
2023/09/28 08:27:25;;;;;;;23.35;3.70;;;;;;;21.53;100.00;101755.53;5251747;28;20035;-71
2023/09/28 08:29:56;;;;;;;24.85;4.63;;;;;;;21.83;100.00;101753.91;5255116;28;20481;-71
2023/09/28 08:32:26;;;;;;;30.73;4.07;;;;;;;22.03;100.00;101750.22;5250161;28;20093;-72
2023/09/28 08:34:57;;;;;;;29.77;4.28;;;;;;;22.39;100.00;101764.09;5253015;28;20033;-71
2023/09/28 08:37:28;;;;;;;26.15;5.38;;;;;;;22.84;100.00;101755.69;5254933;28;20111;-72
2023/09/28 08:39:59;;;;;;;23.73;4.60;;;;;;;22.98;100.00;101749.03;5250709;28;20024;-72
2023/09/28 08:42:31;;;;;;;25.23;5.03;;;;;;;22.67;100.00;101754.59;5255117;28;20089;-71
2023/09/28 08:45:02;;;;;;;24.42;3.90;;;;;;;23.03;100.00;101772.16;5245997;28;20040;-71
2023/09/28 08:47:34;;;;;;;22.50;3.70;;;;;;;22.86;100.00;101761.78;5253842;28;20485;-71
2023/09/28 08:50:08;;;;;;;23.92;4.38;;;;;;;22.08;100.00;101756.69;5251210;28;20486;-72
2023/09/28 08:52:39;;;;;;;20.00;3.47;;;;;;;21.99;100.00;101758.03;5250245;28;20047;-72
2023/09/28 08:55:12;;;;;;;22.90;4.38;;;;;;;22.00;100.00;101767.06;5246898;28;20028;-72
2023/09/28 08:57:43;;;;;;;22.20;4.35;;;;;;;21.86;100.00;101780.81;5250939;28;20032;-73
2023/09/28 09:00:14;;;;;;;20.38;4.25;;;;;;;21.61;100.00;101775.25;5252430;28;20128;-72
2023/09/28 09:02:45;;;;;;;34.78;4.07;;;;;;;21.38;100.00;101778.47;5254076;28;20047;-72
2023/09/28 09:05:15;;;;;;;22.73;3.90;;;;;;;21.28;100.00;101780.78;5251889;28;20024;-72
2023/09/28 09:07:49;;;;;;;19.73;3.63;;;;;;;21.20;100.00;101778.31;5253183;28;20024;-72
2023/09/28 09:10:20;;;;;;;21.88;3.90;;;;;;;21.32;100.00;101773.06;5251002;28;20074;-72
2023/09/28 09:12:52;;;;;;;29.60;4.55;;;;;;;21.57;100.00;101774.00;5251878;28;20415;-72
2023/09/28 09:15:24;;;;;;;23.35;3.83;;;;;;;21.97;100.00;101766.44;5251350;28;20036;-72
2023/09/28 09:18:00;;;;;;;21.50;3.78;;;;;;;22.45;100.00;101760.47;5254064;28;20115;-72
2023/09/28 09:20:31;;;;;;;19.08;3.15;;;;;;;22.52;100.00;101767.78;5249876;28;20498;-72
2023/09/28 09:23:12;;;;;;;24.00;3.50;;;;;;;22.54;100.00;101776.56;5251582;28;20032;-71
2023/09/28 09:25:47;;;;;;;23.10;4.70;;;;;;;22.30;100.00;101775.53;5256323;28;20028;-72
2023/09/28 09:28:33;;;;;;;21.73;4.13;;;;;;;22.01;100.00;101761.38;5249541;28;20028;-72
2023/09/28 09:31:04;;;;;;;25.92;4.22;;;;;;;21.85;100.00;101772.84;5252547;28;20410;-71
2023/09/28 09:33:36;;;;;;;22.17;4.05;;;;;;;21.71;100.00;101772.91;5250883;28;20024;-72
2023/09/28 09:36:07;;;;;;;21.30;4.05;;;;;;;21.66;100.00;101767.25;5249980;28;20111;-72
2023/09/28 09:38:37;;;;;;;23.52;3.88;;;;;;;21.74;100.00;101768.91;5254604;28;20469;-72
2023/09/28 09:41:08;;;;;;;28.20;3.83;;;;;;;21.79;100.00;101760.03;5248625;28;20016;-72
2023/09/28 09:43:41;;;;;;;27.27;4.78;;;;;;;21.90;100.00;101768.38;5252460;28;20028;-72
2023/09/28 09:46:11;;;;;;;23.75;4.38;;;;;;;22.01;100.00;101760.56;5246263;28;20031;-71
2023/09/28 09:48:43;;;;;;;24.13;3.92;;;;;;;22.17;100.00;101755.41;5252122;28;20020;-72
2023/09/28 09:51:15;;;;;;;23.33;4.18;;;;;;;22.41;100.00;101751.03;5248272;28;20050;-72
2023/09/28 09:53:47;;;;;;;24.40;4.03;;;;;;;22.60;100.00;101751.09;5251957;28;20059;-72
2023/09/28 09:56:18;;;;;;;28.02;4.25;;;;;;;22.50;100.00;101762.53;5241556;28;20052;-71
2023/09/28 09:58:52;;;;;;;28.83;5.63;;;;;;;22.65;100.00;101763.03;5246136;28;20514;-72
2023/09/28 10:01:22;;;;;;;19.23;3.90;;;;;;;22.83;100.00;101769.59;5250001;28;20027;-72
2023/09/28 10:03:55;;;;;;;18.05;4.15;;;;;;;22.67;100.00;101765.53;5248895;28;20016;-72
2023/09/28 10:06:27;;;;;;;28.30;4.30;;;;;;;22.39;100.00;101761.38;5248523;28;20094;-72
2023/09/28 10:08:58;;;;;;;24.77;4.18;;;;;;;22.28;100.00;101761.22;5250209;28;20020;-72
2023/09/28 10:11:29;;;;;;;23.67;4.72;;;;;;;22.17;100.00;101762.78;5238844;28;20044;-72
2023/09/28 10:13:59;;;;;;;27.50;4.20;;;;;;;22.26;100.00;101757.88;5244557;28;20032;-71
2023/09/28 10:16:34;;;;;;;29.15;4.25;;;;;;;22.07;100.00;101763.22;5238759;28;20137;-72
2023/09/28 10:19:05;;;;;;;22.80;4.47;;;;;;;22.00;100.00;101758.88;5246476;28;20031;-71
2023/09/28 10:21:37;;;;;;;18.75;3.72;;;;;;;21.98;100.00;101762.66;5250127;28;20017;-72
2023/09/28 10:24:09;;;;;;;22.52;4.45;;;;;;;21.84;100.00;101765.69;5241989;28;20032;-71
2023/09/28 10:26:51;;;;;;;27.58;4.18;;;;;;;22.05;100.00;101761.78;5240085;28;20101;-72
2023/09/28 10:29:28;;;;;;;30.75;4.43;;;;;;;22.38;100.00;101765.13;5238225;28;20043;-71
2023/09/28 10:32:01;;;;;;;22.90;3.83;;;;;;;22.65;100.00;101764.94;5241756;28;20016;-72
2023/09/28 10:34:31;;;;;;;30.52;4.18;;;;;;;22.74;100.00;101767.16;5247061;28;20043;-72
2023/09/28 10:37:07;;;;;;;26.70;4.15;;;;;;;22.92;100.00;101769.09;5245893;28;20336;-72
2023/09/28 10:39:38;;;;;;;22.40;4.20;;;;;;;23.18;100.00;101762.50;5250204;28;20300;-72
2023/09/28 10:42:12;;;;;;;19.05;4.15;;;;;;;23.27;100.00;101744.72;5250488;28;20016;-72
2023/09/28 10:44:46;;;;;;;22.00;3.75;;;;;;;23.36;100.00;101758.09;5253025;28;20036;-72
2023/09/28 10:47:17;;;;;;;22.73;3.78;;;;;;;23.21;100.00;101763.97;5247622;28;20039;-73
2023/09/28 10:49:50;;;;;;;22.90;3.88;;;;;;;23.22;100.00;101761.00;5249718;28;20024;-73
2023/09/28 10:52:23;;;;;;;22.48;3.22;;;;;;;22.92;100.00;101762.81;5251490;28;20024;-73
2023/09/28 10:54:54;;;;;;;29.13;4.80;;;;;;;22.94;100.00;101764.25;5250112;28;20066;-73
2023/09/28 10:57:34;;;;;;;24.30;4.07;;;;;;;22.66;100.00;101770.16;5246957;28;20111;-73
2023/09/28 11:00:12;;;;;;;15.57;3.42;;;;;;;22.65;100.00;101784.91;5251141;28;20035;-73
2023/09/28 11:02:44;;;;;;;26.45;3.83;;;;;;;22.65;100.00;101770.41;5250922;28;20435;-72
2023/09/28 11:05:18;;;;;;;22.35;3.50;;;;;;;22.79;100.00;101762.88;5246137;28;20074;-73
2023/09/28 11:07:48;;;;;;;20.73;3.78;;;;;;;22.93;100.00;101768.03;5251020;28;20035;-72
2023/09/28 11:10:23;;;;;;;21.50;3.28;;;;;;;22.91;100.00;101770.16;5243342;28;20448;-73
2023/09/28 11:12:54;;;;;;;;;;;;;;;22.88;100.00;101765.13;5257153;28;20035;-73
2023/09/28 11:15:24;;;;;;;30.70;3.95;;;;;;;23.10;100.00;101759.25;5250562;28;19909;-73
2023/09/28 11:17:56;;;;;;;22.00;3.75;;;;;;;23.07;100.00;101762.44;5252516;28;20035;-73
2023/09/28 11:20:26;;;;;;;18.63;3.45;;;;;;;23.25;100.00;101767.94;5250998;28;20043;-73
2023/09/28 11:22:57;;;;;;;17.55;3.40;;;;;;;23.14;100.00;101757.72;5246007;28;20394;-73
2023/09/28 11:25:27;;;;;;;19.38;2.92;;;;;;;23.20;100.00;101759.56;5253424;28;20024;-75
2023/09/28 11:27:58;;;;;;;23.13;3.45;;;;;;;23.28;100.00;101756.50;5245003;28;20034;-73
2023/09/28 11:30:29;;;;;;;14.45;3.28;;;;;;;23.02;100.00;101765.84;5248190;28;20047;-74
2023/09/28 11:33:03;;;;;;;17.50;3.60;;;;;;;23.26;100.00;101755.91;5247123;28;20029;-73